sensor_id;sensor_type;location;lat;lon;timestamp;temperature;humidity
15217;DHT22;7711;46.634;14.318;2023-04-01T00:01:25;6.60;1.00
15217;DHT22;7711;46.634;14.318;2023-04-01T00:03:53;6.50;1.00
15217;DHT22;7711;46.634;14.318;2023-04-01T00:06:22;6.50;1.00
15217;DHT22;7711;46.634;14.318;2023-04-01T00:08:49;6.50;1.00
15217;DHT22;7711;46.634;14.318;2023-04-01T00:11:18;6.50;1.00
15217;DHT22;7711;46.634;14.318;2023-04-01T00:13:45;6.50;1.00
15217;DHT22;7711;46.634;14.318;2023-04-01T00:16:12;6.50;1.00
15217;DHT22;7711;46.634;14.318;2023-04-01T00:18:41;6.40;1.00
15217;DHT22;7711;46.634;14.318;2023-04-01T00:21:08;6.50;1.00
15217;DHT22;7711;46.634;14.318;2023-04-01T00:23:35;6.50;1.00
15217;DHT22;7711;46.634;14.318;2023-04-01T00:26:03;6.40;1.00
15217;DHT22;7711;46.634;14.318;2023-04-01T00:28:31;6.40;99.90
15217;DHT22;7711;46.634;14.318;2023-04-01T00:31:04;6.40;99.90
15217;DHT22;7711;46.634;14.318;2023-04-01T00:33:31;6.30;99.90
15217;DHT22;7711;46.634;14.318;2023-04-01T00:36:08;6.30;1.00
15217;DHT22;7711;46.634;14.318;2023-04-01T00:38:35;6.30;1.00
15217;DHT22;7711;46.634;14.318;2023-04-01T00:41:03;6.30;1.00
15217;DHT22;7711;46.634;14.318;2023-04-01T00:43:31;6.20;99.90
15217;DHT22;7711;46.634;14.318;2023-04-01T00:45:58;6.10;99.90
15217;DHT22;7711;46.634;14.318;2023-04-01T00:48:28;6.10;1.00
15217;DHT22;7711;46.634;14.318;2023-04-01T00:50:59;6.10;1.00
15217;DHT22;7711;46.634;14.318;2023-04-01T00:53:30;6.20;1.00
15217;DHT22;7711;46.634;14.318;2023-04-01T00:56:02;6.10;99.90
15217;DHT22;7711;46.634;14.318;2023-04-01T00:58:34;6.10;99.90
15217;DHT22;7711;46.634;14.318;2023-04-01T01:01:02;6.10;1.00
15217;DHT22;7711;46.634;14.318;2023-04-01T01:03:30;6.00;1.00
15217;DHT22;7711;46.634;14.318;2023-04-01T01:06:10;6.00;1.00
15217;DHT22;7711;46.634;14.318;2023-04-01T01:08:54;5.90;1.00
15217;DHT22;7711;46.634;14.318;2023-04-01T01:11:31;6.00;99.90
15217;DHT22;7711;46.634;14.318;2023-04-01T01:14:04;6.00;5.20
15217;DHT22;7711;46.634;14.318;2023-04-01T01:16:39;5.90;99.90
15217;DHT22;7711;46.634;14.318;2023-04-01T01:19:17;5.90;1.00
15217;DHT22;7711;46.634;14.318;2023-04-01T01:22:02;5.90;1.00
15217;DHT22;7711;46.634;14.318;2023-04-01T01:24:54;5.90;1.00
15217;DHT22;7711;46.634;14.318;2023-04-01T01:27:25;5.90;1.00
15217;DHT22;7711;46.634;14.318;2023-04-01T01:33:13;5.80;1.00
15217;DHT22;7711;46.634;14.318;2023-04-01T01:35:46;5.90;1.00
15217;DHT22;7711;46.634;14.318;2023-04-01T01:38:16;5.80;1.00
15217;DHT22;7711;46.634;14.318;2023-04-01T01:40:46;5.80;1.00
15217;DHT22;7711;46.634;14.318;2023-04-01T01:43:16;5.80;1.00
15217;DHT22;7711;46.634;14.318;2023-04-01T01:45:47;5.60;99.90
15217;DHT22;7711;46.634;14.318;2023-04-01T01:48:16;5.60;1.00
15217;DHT22;7711;46.634;14.318;2023-04-01T01:50:46;5.60;94.20
15217;DHT22;7711;46.634;14.318;2023-04-01T01:53:14;5.60;99.90
15217;DHT22;7711;46.634;14.318;2023-04-01T01:55:43;5.60;1.00
15217;DHT22;7711;46.634;14.318;2023-04-01T01:58:13;5.60;1.00
15217;DHT22;7711;46.634;14.318;2023-04-01T02:00:46;5.50;1.00
15217;DHT22;7711;46.634;14.318;2023-04-01T02:03:15;5.60;99.90
15217;DHT22;7711;46.634;14.318;2023-04-01T02:05:45;5.60;99.90
15217;DHT22;7711;46.634;14.318;2023-04-01T02:08:16;5.60;99.90
15217;DHT22;7711;46.634;14.318;2023-04-01T02:10:49;5.60;99.90
15217;DHT22;7711;46.634;14.318;2023-04-01T02:13:24;5.60;99.90
15217;DHT22;7711;46.634;14.318;2023-04-01T02:15:57;5.60;63.20
15217;DHT22;7711;46.634;14.318;2023-04-01T02:18:26;5.50;99.90
15217;DHT22;7711;46.634;14.318;2023-04-01T02:20:56;5.50;99.90
15217;DHT22;7711;46.634;14.318;2023-04-01T02:23:24;5.40;99.90
15217;DHT22;7711;46.634;14.318;2023-04-01T02:25:52;5.40;99.90
15217;DHT22;7711;46.634;14.318;2023-04-01T02:28:20;5.40;1.00
15217;DHT22;7711;46.634;14.318;2023-04-01T02:30:50;5.40;1.00
15217;DHT22;7711;46.634;14.318;2023-04-01T02:33:17;5.40;1.00
15217;DHT22;7711;46.634;14.318;2023-04-01T02:35:46;5.40;1.00
15217;DHT22;7711;46.634;14.318;2023-04-01T02:38:14;5.40;1.00
15217;DHT22;7711;46.634;14.318;2023-04-01T02:40:48;5.40;1.00
15217;DHT22;7711;46.634;14.318;2023-04-01T02:43:16;5.40;1.00
15217;DHT22;7711;46.634;14.318;2023-04-01T02:45:44;5.40;1.00
15217;DHT22;7711;46.634;14.318;2023-04-01T02:48:11;5.30;1.00
15217;DHT22;7711;46.634;14.318;2023-04-01T02:50:39;5.30;1.00
15217;DHT22;7711;46.634;14.318;2023-04-01T02:53:06;5.30;1.00
15217;DHT22;7711;46.634;14.318;2023-04-01T02:55:35;5.40;1.00
15217;DHT22;7711;46.634;14.318;2023-04-01T02:58:02;5.40;1.00
15217;DHT22;7711;46.634;14.318;2023-04-01T03:00:29;5.40;1.00
15217;DHT22;7711;46.634;14.318;2023-04-01T03:02:56;5.40;1.00
15217;DHT22;7711;46.634;14.318;2023-04-01T03:05:23;5.50;1.00
15217;DHT22;7711;46.634;14.318;2023-04-01T03:07:51;5.50;1.00
15217;DHT22;7711;46.634;14.318;2023-04-01T03:10:18;5.50;1.00
15217;DHT22;7711;46.634;14.318;2023-04-01T03:12:46;5.50;1.00
15217;DHT22;7711;46.634;14.318;2023-04-01T03:15:14;5.60;1.00
15217;DHT22;7711;46.634;14.318;2023-04-01T03:17:41;5.60;99.90
15217;DHT22;7711;46.634;14.318;2023-04-01T03:20:10;5.60;99.90
15217;DHT22;7711;46.634;14.318;2023-04-01T03:22:37;5.60;99.40
15217;DHT22;7711;46.634;14.318;2023-04-01T03:25:06;5.60;46.00
15217;DHT22;7711;46.634;14.318;2023-04-01T03:27:33;5.60;77.60
15217;DHT22;7711;46.634;14.318;2023-04-01T03:30:03;5.50;1.00
15217;DHT22;7711;46.634;14.318;2023-04-01T03:32:30;5.50;1.00
15217;DHT22;7711;46.634;14.318;2023-04-01T03:34:57;5.30;1.00
15217;DHT22;7711;46.634;14.318;2023-04-01T03:37:24;5.40;6.00
15217;DHT22;7711;46.634;14.318;2023-04-01T03:39:51;5.20;1.00
15217;DHT22;7711;46.634;14.318;2023-04-01T03:42:18;5.20;24.70
15217;DHT22;7711;46.634;14.318;2023-04-01T03:44:45;5.20;1.00
15217;DHT22;7711;46.634;14.318;2023-04-01T03:47:13;5.10;1.00
15217;DHT22;7711;46.634;14.318;2023-04-01T03:49:40;5.00;1.00
15217;DHT22;7711;46.634;14.318;2023-04-01T03:52:09;5.00;59.60
15217;DHT22;7711;46.634;14.318;2023-04-01T03:54:37;5.10;99.90
15217;DHT22;7711;46.634;14.318;2023-04-01T03:57:04;5.10;99.90
15217;DHT22;7711;46.634;14.318;2023-04-01T03:59:31;5.10;99.90
15217;DHT22;7711;46.634;14.318;2023-04-01T04:01:58;5.10;99.90
15217;DHT22;7711;46.634;14.318;2023-04-01T04:04:27;5.10;99.90
15217;DHT22;7711;46.634;14.318;2023-04-01T04:06:54;5.20;99.90
15217;DHT22;7711;46.634;14.318;2023-04-01T04:09:21;5.10;99.90
15217;DHT22;7711;46.634;14.318;2023-04-01T04:11:48;5.10;99.90
15217;DHT22;7711;46.634;14.318;2023-04-01T04:14:16;5.20;1.00
15217;DHT22;7711;46.634;14.318;2023-04-01T04:16:43;5.20;1.00
15217;DHT22;7711;46.634;14.318;2023-04-01T04:19:10;5.20;1.00
15217;DHT22;7711;46.634;14.318;2023-04-01T04:21:39;5.20;1.00
15217;DHT22;7711;46.634;14.318;2023-04-01T04:24:06;5.20;1.00
15217;DHT22;7711;46.634;14.318;2023-04-01T04:26:33;5.10;1.00
15217;DHT22;7711;46.634;14.318;2023-04-01T04:29:01;5.00;1.00
15217;DHT22;7711;46.634;14.318;2023-04-01T04:31:28;5.00;99.90
15217;DHT22;7711;46.634;14.318;2023-04-01T04:33:55;4.90;99.90
15217;DHT22;7711;46.634;14.318;2023-04-01T04:36:22;4.90;99.90
15217;DHT22;7711;46.634;14.318;2023-04-01T04:38:51;4.90;1.00
15217;DHT22;7711;46.634;14.318;2023-04-01T04:41:19;4.90;1.00
15217;DHT22;7711;46.634;14.318;2023-04-01T04:43:49;4.90;1.00
15217;DHT22;7711;46.634;14.318;2023-04-01T04:46:18;4.90;1.00
15217;DHT22;7711;46.634;14.318;2023-04-01T04:48:45;4.90;1.00
15217;DHT22;7711;46.634;14.318;2023-04-01T04:51:14;5.00;78.20
15217;DHT22;7711;46.634;14.318;2023-04-01T04:53:42;5.00;1.00
15217;DHT22;7711;46.634;14.318;2023-04-01T04:56:10;5.10;1.00
15217;DHT22;7711;46.634;14.318;2023-04-01T04:58:38;5.10;1.00
15217;DHT22;7711;46.634;14.318;2023-04-01T05:01:07;5.20;1.00
15217;DHT22;7711;46.634;14.318;2023-04-01T05:03:34;5.20;1.00
15217;DHT22;7711;46.634;14.318;2023-04-01T05:06:02;5.30;1.00
15217;DHT22;7711;46.634;14.318;2023-04-01T05:08:29;5.40;1.00
15217;DHT22;7711;46.634;14.318;2023-04-01T05:10:56;5.30;1.00
15217;DHT22;7711;46.634;14.318;2023-04-01T05:13:24;5.30;99.90
15217;DHT22;7711;46.634;14.318;2023-04-01T05:15:51;5.30;1.00
15217;DHT22;7711;46.634;14.318;2023-04-01T05:18:18;5.40;99.90
15217;DHT22;7711;46.634;14.318;2023-04-01T05:20:46;5.40;1.00
15217;DHT22;7711;46.634;14.318;2023-04-01T05:23:14;5.40;99.90
15217;DHT22;7711;46.634;14.318;2023-04-01T05:25:41;5.40;1.00
15217;DHT22;7711;46.634;14.318;2023-04-01T05:28:08;5.40;99.90
15217;DHT22;7711;46.634;14.318;2023-04-01T05:30:39;5.40;99.90
15217;DHT22;7711;46.634;14.318;2023-04-01T05:33:08;5.50;1.00
15217;DHT22;7711;46.634;14.318;2023-04-01T05:35:35;5.50;1.00
15217;DHT22;7711;46.634;14.318;2023-04-01T05:38:02;5.60;1.00
15217;DHT22;7711;46.634;14.318;2023-04-01T05:40:30;5.60;99.90
15217;DHT22;7711;46.634;14.318;2023-04-01T05:42:57;5.70;99.90
15217;DHT22;7711;46.634;14.318;2023-04-01T05:45:25;5.70;1.00
15217;DHT22;7711;46.634;14.318;2023-04-01T05:47:54;5.70;1.00
15217;DHT22;7711;46.634;14.318;2023-04-01T05:50:21;5.70;99.90
15217;DHT22;7711;46.634;14.318;2023-04-01T05:52:48;5.80;99.90
15217;DHT22;7711;46.634;14.318;2023-04-01T05:55:16;5.80;99.90
15217;DHT22;7711;46.634;14.318;2023-04-01T05:57:45;5.80;55.80
15217;DHT22;7711;46.634;14.318;2023-04-01T06:00:15;5.90;1.00
15217;DHT22;7711;46.634;14.318;2023-04-01T06:02:42;5.80;1.00
15217;DHT22;7711;46.634;14.318;2023-04-01T06:05:18;5.70;1.00
15217;DHT22;7711;46.634;14.318;2023-04-01T06:07:46;5.70;1.00
15217;DHT22;7711;46.634;14.318;2023-04-01T06:10:15;5.80;65.80
15217;DHT22;7711;46.634;14.318;2023-04-01T06:12:54;5.90;99.90
15217;DHT22;7711;46.634;14.318;2023-04-01T06:15:34;5.90;79.80
15217;DHT22;7711;46.634;14.318;2023-04-01T06:18:35;6.00;46.70
15217;DHT22;7711;46.634;14.318;2023-04-01T06:21:26;5.90;1.00
15217;DHT22;7711;46.634;14.318;2023-04-01T06:24:01;5.90;1.00
15217;DHT22;7711;46.634;14.318;2023-04-01T06:26:37;5.90;1.00
15217;DHT22;7711;46.634;14.318;2023-04-01T06:29:27;6.00;1.00
15217;DHT22;7711;46.634;14.318;2023-04-01T06:40:58;6.00;1.00
15217;DHT22;7711;46.634;14.318;2023-04-01T06:43:37;6.00;1.00
15217;DHT22;7711;46.634;14.318;2023-04-01T06:46:17;6.00;1.00
15217;DHT22;7711;46.634;14.318;2023-04-01T06:48:59;6.10;1.00
15217;DHT22;7711;46.634;14.318;2023-04-01T06:51:36;6.40;1.00
15217;DHT22;7711;46.634;14.318;2023-04-01T06:54:10;6.50;1.00
15217;DHT22;7711;46.634;14.318;2023-04-01T06:56:41;6.50;1.00
15217;DHT22;7711;46.634;14.318;2023-04-01T06:59:12;6.50;1.00
15217;DHT22;7711;46.634;14.318;2023-04-01T07:01:44;6.80;99.90
15217;DHT22;7711;46.634;14.318;2023-04-01T07:04:15;6.90;99.90
15217;DHT22;7711;46.634;14.318;2023-04-01T07:06:46;7.00;99.90
15217;DHT22;7711;46.634;14.318;2023-04-01T07:09:18;7.10;99.90
15217;DHT22;7711;46.634;14.318;2023-04-01T07:11:46;7.40;99.90
15217;DHT22;7711;46.634;14.318;2023-04-01T07:14:17;6.90;99.90
15217;DHT22;7711;46.634;14.318;2023-04-01T07:16:50;7.10;99.90
15217;DHT22;7711;46.634;14.318;2023-04-01T07:19:22;7.30;99.90
15217;DHT22;7711;46.634;14.318;2023-04-01T07:21:54;7.20;99.90
15217;DHT22;7711;46.634;14.318;2023-04-01T07:24:25;7.30;99.90
15217;DHT22;7711;46.634;14.318;2023-04-01T07:26:55;7.20;99.90
15217;DHT22;7711;46.634;14.318;2023-04-01T07:29:22;7.30;99.90
15217;DHT22;7711;46.634;14.318;2023-04-01T07:32:03;7.30;99.90
15217;DHT22;7711;46.634;14.318;2023-04-01T07:34:41;7.40;99.90
15217;DHT22;7711;46.634;14.318;2023-04-01T07:37:15;7.40;99.90
15217;DHT22;7711;46.634;14.318;2023-04-01T07:39:50;7.40;99.90
15217;DHT22;7711;46.634;14.318;2023-04-01T07:42:28;7.60;99.90
15217;DHT22;7711;46.634;14.318;2023-04-01T07:45:06;7.60;99.90
15217;DHT22;7711;46.634;14.318;2023-04-01T07:47:55;7.60;99.90
15217;DHT22;7711;46.634;14.318;2023-04-01T07:50:29;7.70;99.90
15217;DHT22;7711;46.634;14.318;2023-04-01T07:53:05;7.50;99.90
15217;DHT22;7711;46.634;14.318;2023-04-01T07:55:41;7.30;99.90
15217;DHT22;7711;46.634;14.318;2023-04-01T07:58:14;7.50;99.90
15217;DHT22;7711;46.634;14.318;2023-04-01T08:00:51;7.70;99.90
15217;DHT22;7711;46.634;14.318;2023-04-01T08:03:31;7.80;99.90
15217;DHT22;7711;46.634;14.318;2023-04-01T08:06:05;7.80;99.90
15217;DHT22;7711;46.634;14.318;2023-04-01T08:08:41;7.90;99.90
15217;DHT22;7711;46.634;14.318;2023-04-01T08:11:21;8.20;99.90
15217;DHT22;7711;46.634;14.318;2023-04-01T08:13:56;8.40;99.90
15217;DHT22;7711;46.634;14.318;2023-04-01T08:16:32;8.30;99.90
15217;DHT22;7711;46.634;14.318;2023-04-01T08:19:13;8.50;99.90
15217;DHT22;7711;46.634;14.318;2023-04-01T08:21:43;8.40;99.90
15217;DHT22;7711;46.634;14.318;2023-04-01T08:24:22;8.60;99.90
15217;DHT22;7711;46.634;14.318;2023-04-01T08:26:55;8.60;99.90
15217;DHT22;7711;46.634;14.318;2023-04-01T08:29:26;8.80;99.90
15217;DHT22;7711;46.634;14.318;2023-04-01T08:32:05;8.80;99.90
15217;DHT22;7711;46.634;14.318;2023-04-01T08:34:36;8.90;99.90
15217;DHT22;7711;46.634;14.318;2023-04-01T08:37:07;8.90;99.90
15217;DHT22;7711;46.634;14.318;2023-04-01T08:39:38;9.20;99.90
15217;DHT22;7711;46.634;14.318;2023-04-01T08:48:42;9.50;99.90
15217;DHT22;7711;46.634;14.318;2023-04-01T08:51:31;9.70;99.90
15217;DHT22;7711;46.634;14.318;2023-04-01T08:56:59;9.50;99.90
15217;DHT22;7711;46.634;14.318;2023-04-01T09:02:55;9.80;99.90
15217;DHT22;7711;46.634;14.318;2023-04-01T09:08:35;9.40;99.90
15217;DHT22;7711;46.634;14.318;2023-04-01T09:11:07;9.60;99.90
15217;DHT22;7711;46.634;14.318;2023-04-01T09:14:08;9.70;99.90
15217;DHT22;7711;46.634;14.318;2023-04-01T09:17:09;10.10;99.90
15217;DHT22;7711;46.634;14.318;2023-04-01T09:19:58;10.00;99.90
15217;DHT22;7711;46.634;14.318;2023-04-01T09:22:42;10.40;99.90
15217;DHT22;7711;46.634;14.318;2023-04-01T09:28:11;10.40;99.90
15217;DHT22;7711;46.634;14.318;2023-04-01T09:31:05;10.10;99.90
15217;DHT22;7711;46.634;14.318;2023-04-01T09:34:04;9.90;99.90
15217;DHT22;7711;46.634;14.318;2023-04-01T09:36:45;9.80;99.90
15217;DHT22;7711;46.634;14.318;2023-04-01T09:39:28;10.00;99.90
15217;DHT22;7711;46.634;14.318;2023-04-01T09:42:14;9.90;99.90
15217;DHT22;7711;46.634;14.318;2023-04-01T09:44:48;10.20;99.90
15217;DHT22;7711;46.634;14.318;2023-04-01T09:47:34;10.70;99.90
15217;DHT22;7711;46.634;14.318;2023-04-01T09:50:35;11.20;99.90
15217;DHT22;7711;46.634;14.318;2023-04-01T09:53:14;11.30;99.90
15217;DHT22;7711;46.634;14.318;2023-04-01T09:59:35;11.40;99.90
15217;DHT22;7711;46.634;14.318;2023-04-01T10:02:32;11.40;99.90
15217;DHT22;7711;46.634;14.318;2023-04-01T10:05:41;11.10;99.90
15217;DHT22;7711;46.634;14.318;2023-04-01T10:17:44;11.10;99.90
15217;DHT22;7711;46.634;14.318;2023-04-01T10:20:42;11.00;99.90
15217;DHT22;7711;46.634;14.318;2023-04-01T10:23:21;11.00;99.90
15217;DHT22;7711;46.634;14.318;2023-04-01T10:29:28;11.40;99.90
15217;DHT22;7711;46.634;14.318;2023-04-01T10:38:25;11.70;99.90
15217;DHT22;7711;46.634;14.318;2023-04-01T10:50:25;12.00;99.90
15217;DHT22;7711;46.634;14.318;2023-04-01T10:53:27;12.30;99.90
15217;DHT22;7711;46.634;14.318;2023-04-01T10:56:32;12.50;99.90
15217;DHT22;7711;46.634;14.318;2023-04-01T11:02:43;12.60;99.90
15217;DHT22;7711;46.634;14.318;2023-04-01T11:05:57;12.70;99.90
15217;DHT22;7711;46.634;14.318;2023-04-01T11:20:48;12.90;99.90
15217;DHT22;7711;46.634;14.318;2023-04-01T11:26:32;13.90;99.90
15217;DHT22;7711;46.634;14.318;2023-04-01T11:32:02;14.10;99.90
15217;DHT22;7711;46.634;14.318;2023-04-01T11:34:56;14.00;99.90
15217;DHT22;7711;46.634;14.318;2023-04-01T11:37:36;13.90;99.90
15217;DHT22;7711;46.634;14.318;2023-04-01T11:40:14;13.70;99.90
15217;DHT22;7711;46.634;14.318;2023-04-01T11:42:53;13.60;99.90
15217;DHT22;7711;46.634;14.318;2023-04-01T11:45:33;13.80;99.90
15217;DHT22;7711;46.634;14.318;2023-04-01T11:48:15;14.30;99.90
15217;DHT22;7711;46.634;14.318;2023-04-01T11:50:56;13.80;99.90
15217;DHT22;7711;46.634;14.318;2023-04-01T11:53:31;13.50;99.90
15217;DHT22;7711;46.634;14.318;2023-04-01T11:56:10;13.70;99.90
15217;DHT22;7711;46.634;14.318;2023-04-01T12:01:45;13.70;99.90
15217;DHT22;7711;46.634;14.318;2023-04-01T12:04:43;14.20;99.90
15217;DHT22;7711;46.634;14.318;2023-04-01T12:07:24;14.50;99.90
15217;DHT22;7711;46.634;14.318;2023-04-01T12:10:02;14.60;99.90
15217;DHT22;7711;46.634;14.318;2023-04-01T12:12:38;14.90;99.90
15217;DHT22;7711;46.634;14.318;2023-04-01T12:15:19;15.00;99.90
15217;DHT22;7711;46.634;14.318;2023-04-01T12:17:52;14.70;99.90
15217;DHT22;7711;46.634;14.318;2023-04-01T12:20:29;14.70;99.90
15217;DHT22;7711;46.634;14.318;2023-04-01T12:23:13;15.20;99.90
15217;DHT22;7711;46.634;14.318;2023-04-01T12:26:00;14.70;99.90
15217;DHT22;7711;46.634;14.318;2023-04-01T12:28:44;14.80;99.90
15217;DHT22;7711;46.634;14.318;2023-04-01T12:31:26;14.90;99.90
15217;DHT22;7711;46.634;14.318;2023-04-01T12:37:12;15.70;99.90
15217;DHT22;7711;46.634;14.318;2023-04-01T12:40:16;16.80;99.90
15217;DHT22;7711;46.634;14.318;2023-04-01T12:42:59;17.10;99.90
15217;DHT22;7711;46.634;14.318;2023-04-01T12:45:30;17.20;99.90
15217;DHT22;7711;46.634;14.318;2023-04-01T12:48:10;16.70;99.90
15217;DHT22;7711;46.634;14.318;2023-04-01T12:51:11;16.20;99.90
15217;DHT22;7711;46.634;14.318;2023-04-01T12:56:42;17.30;99.90
15217;DHT22;7711;46.634;14.318;2023-04-01T12:59:29;17.10;99.90
15217;DHT22;7711;46.634;14.318;2023-04-01T13:02:11;17.00;99.90
15217;DHT22;7711;46.634;14.318;2023-04-01T13:04:56;16.90;99.90
15217;DHT22;7711;46.634;14.318;2023-04-01T13:07:52;17.00;99.90
15217;DHT22;7711;46.634;14.318;2023-04-01T13:10:42;17.70;99.90
15217;DHT22;7711;46.634;14.318;2023-04-01T13:13:29;17.90;99.90
15217;DHT22;7711;46.634;14.318;2023-04-01T13:16:04;17.60;99.90
15217;DHT22;7711;46.634;14.318;2023-04-01T13:18:39;17.90;99.90
15217;DHT22;7711;46.634;14.318;2023-04-01T13:21:12;18.70;99.90
15217;DHT22;7711;46.634;14.318;2023-04-01T13:23:51;19.30;99.90
15217;DHT22;7711;46.634;14.318;2023-04-01T13:26:27;20.60;99.90
15217;DHT22;7711;46.634;14.318;2023-04-01T13:29:00;21.80;99.90
15217;DHT22;7711;46.634;14.318;2023-04-01T13:31:38;23.00;97.80
15217;DHT22;7711;46.634;14.318;2023-04-01T13:34:25;22.90;92.60
15217;DHT22;7711;46.634;14.318;2023-04-01T13:37:04;23.40;89.50
15217;DHT22;7711;46.634;14.318;2023-04-01T13:39:41;23.00;89.00
15217;DHT22;7711;46.634;14.318;2023-04-01T13:42:18;22.60;83.70
15217;DHT22;7711;46.634;14.318;2023-04-01T13:44:51;22.30;85.00
15217;DHT22;7711;46.634;14.318;2023-04-01T13:47:43;22.80;75.50
15217;DHT22;7711;46.634;14.318;2023-04-01T13:50:48;23.00;96.80
15217;DHT22;7711;46.634;14.318;2023-04-01T13:53:32;24.00;71.10
15217;DHT22;7711;46.634;14.318;2023-04-01T13:56:11;23.80;72.40
15217;DHT22;7711;46.634;14.318;2023-04-01T13:59:03;23.80;68.30
15217;DHT22;7711;46.634;14.318;2023-04-01T14:01:39;23.60;70.40
15217;DHT22;7711;46.634;14.318;2023-04-01T14:07:15;25.30;65.20
15217;DHT22;7711;46.634;14.318;2023-04-01T14:09:54;25.00;60.50
15217;DHT22;7711;46.634;14.318;2023-04-01T14:12:30;24.10;60.90
15217;DHT22;7711;46.634;14.318;2023-04-01T14:15:14;22.40;58.90
15217;DHT22;7711;46.634;14.318;2023-04-01T14:17:58;21.70;59.30
15217;DHT22;7711;46.634;14.318;2023-04-01T14:20:37;20.10;66.20
15217;DHT22;7711;46.634;14.318;2023-04-01T14:29:24;17.30;82.00
15217;DHT22;7711;46.634;14.318;2023-04-01T14:32:07;16.70;83.80
15217;DHT22;7711;46.634;14.318;2023-04-01T14:34:49;16.50;87.40
15217;DHT22;7711;46.634;14.318;2023-04-01T14:37:30;16.40;91.90
15217;DHT22;7711;46.634;14.318;2023-04-01T14:49:21;14.60;92.70
15217;DHT22;7711;46.634;14.318;2023-04-01T14:51:50;14.20;95.60
15217;DHT22;7711;46.634;14.318;2023-04-01T14:54:21;13.30;97.00
15217;DHT22;7711;46.634;14.318;2023-04-01T14:57:05;11.80;99.90
15217;DHT22;7711;46.634;14.318;2023-04-01T14:59:40;11.50;99.90
15217;DHT22;7711;46.634;14.318;2023-04-01T15:02:15;11.40;99.90
15217;DHT22;7711;46.634;14.318;2023-04-01T15:04:55;10.70;99.90
15217;DHT22;7711;46.634;14.318;2023-04-01T15:13:34;10.80;99.90
15217;DHT22;7711;46.634;14.318;2023-04-01T15:16:14;11.00;99.90
15217;DHT22;7711;46.634;14.318;2023-04-01T15:18:51;11.20;99.90
15217;DHT22;7711;46.634;14.318;2023-04-01T15:21:48;11.30;99.90
15217;DHT22;7711;46.634;14.318;2023-04-01T15:24:21;11.20;99.90
15217;DHT22;7711;46.634;14.318;2023-04-01T15:27:08;11.00;99.90
15217;DHT22;7711;46.634;14.318;2023-04-01T15:29:52;11.10;99.90
15217;DHT22;7711;46.634;14.318;2023-04-01T15:32:29;11.30;99.90
15217;DHT22;7711;46.634;14.318;2023-04-01T15:35:06;11.50;99.90
15217;DHT22;7711;46.634;14.318;2023-04-01T15:37:50;11.70;99.90
15217;DHT22;7711;46.634;14.318;2023-04-01T15:40:24;12.60;99.90
15217;DHT22;7711;46.634;14.318;2023-04-01T15:43:06;12.80;99.90
15217;DHT22;7711;46.634;14.318;2023-04-01T15:45:46;13.20;99.90
15217;DHT22;7711;46.634;14.318;2023-04-01T15:48:34;13.20;99.90
15217;DHT22;7711;46.634;14.318;2023-04-01T15:51:11;12.80;99.90
15217;DHT22;7711;46.634;14.318;2023-04-01T15:53:57;13.50;99.90
15217;DHT22;7711;46.634;14.318;2023-04-01T15:56:41;15.50;99.90
15217;DHT22;7711;46.634;14.318;2023-04-01T15:59:20;16.80;99.90
15217;DHT22;7711;46.634;14.318;2023-04-01T16:01:55;17.80;99.90
15217;DHT22;7711;46.634;14.318;2023-04-01T16:07:43;18.70;99.90
15217;DHT22;7711;46.634;14.318;2023-04-01T16:10:22;19.90;99.90
15217;DHT22;7711;46.634;14.318;2023-04-01T16:13:01;20.90;99.90
15217;DHT22;7711;46.634;14.318;2023-04-01T16:15:39;21.40;99.90
15217;DHT22;7711;46.634;14.318;2023-04-01T16:18:25;21.50;99.90
15217;DHT22;7711;46.634;14.318;2023-04-01T16:20:57;21.70;99.90
15217;DHT22;7711;46.634;14.318;2023-04-01T16:23:34;21.10;99.90
15217;DHT22;7711;46.634;14.318;2023-04-01T16:26:07;21.60;99.70
15217;DHT22;7711;46.634;14.318;2023-04-01T16:28:40;21.70;99.30
15217;DHT22;7711;46.634;14.318;2023-04-01T16:31:13;21.20;98.50
15217;DHT22;7711;46.634;14.318;2023-04-01T16:33:47;21.00;96.00
15217;DHT22;7711;46.634;14.318;2023-04-01T16:36:24;19.20;95.00
15217;DHT22;7711;46.634;14.318;2023-04-01T16:39:08;18.40;95.40
15217;DHT22;7711;46.634;14.318;2023-04-01T16:41:42;18.80;95.20
15217;DHT22;7711;46.634;14.318;2023-04-01T16:44:19;18.90;92.60
15217;DHT22;7711;46.634;14.318;2023-04-01T16:46:50;18.40;93.30
15217;DHT22;7711;46.634;14.318;2023-04-01T16:49:29;17.30;92.00
15217;DHT22;7711;46.634;14.318;2023-04-01T16:52:13;17.40;93.20
15217;DHT22;7711;46.634;14.318;2023-04-01T16:54:45;17.20;93.50
15217;DHT22;7711;46.634;14.318;2023-04-01T16:57:19;16.60;91.70
15217;DHT22;7711;46.634;14.318;2023-04-01T16:59:55;16.20;92.30
15217;DHT22;7711;46.634;14.318;2023-04-01T17:02:30;15.60;92.50
15217;DHT22;7711;46.634;14.318;2023-04-01T17:05:01;15.10;94.70
15217;DHT22;7711;46.634;14.318;2023-04-01T17:07:39;14.50;94.20
15217;DHT22;7711;46.634;14.318;2023-04-01T17:10:25;14.00;96.60
15217;DHT22;7711;46.634;14.318;2023-04-01T17:13:08;13.40;96.60
15217;DHT22;7711;46.634;14.318;2023-04-01T17:15:44;13.30;97.60
15217;DHT22;7711;46.634;14.318;2023-04-01T17:18:21;13.10;97.80
15217;DHT22;7711;46.634;14.318;2023-04-01T17:20:55;12.80;98.50
15217;DHT22;7711;46.634;14.318;2023-04-01T17:23:30;12.50;99.90
15217;DHT22;7711;46.634;14.318;2023-04-01T17:26:14;12.40;99.90
15217;DHT22;7711;46.634;14.318;2023-04-01T17:28:52;12.20;99.90
15217;DHT22;7711;46.634;14.318;2023-04-01T17:31:42;12.00;99.90
15217;DHT22;7711;46.634;14.318;2023-04-01T17:34:25;11.70;99.90
15217;DHT22;7711;46.634;14.318;2023-04-01T17:37:09;11.60;99.90
15217;DHT22;7711;46.634;14.318;2023-04-01T17:39:47;11.50;99.90
15217;DHT22;7711;46.634;14.318;2023-04-01T17:42:26;11.40;99.90
15217;DHT22;7711;46.634;14.318;2023-04-01T17:45:04;11.20;99.90
15217;DHT22;7711;46.634;14.318;2023-04-01T17:47:49;11.20;99.90
15217;DHT22;7711;46.634;14.318;2023-04-01T17:50:23;11.00;99.90
15217;DHT22;7711;46.634;14.318;2023-04-01T17:53:02;11.00;99.90
15217;DHT22;7711;46.634;14.318;2023-04-01T17:58:31;10.70;99.90
15217;DHT22;7711;46.634;14.318;2023-04-01T18:01:30;10.60;99.90
15217;DHT22;7711;46.634;14.318;2023-04-01T18:04:17;10.40;99.90
15217;DHT22;7711;46.634;14.318;2023-04-01T18:10:08;10.00;99.90
15217;DHT22;7711;46.634;14.318;2023-04-01T18:12:56;9.90;99.90
15217;DHT22;7711;46.634;14.318;2023-04-01T18:15:31;9.90;99.90
15217;DHT22;7711;46.634;14.318;2023-04-01T18:21:04;9.70;99.90
15217;DHT22;7711;46.634;14.318;2023-04-01T18:23:40;9.40;99.90
15217;DHT22;7711;46.634;14.318;2023-04-01T18:26:13;9.30;99.90
15217;DHT22;7711;46.634;14.318;2023-04-01T18:28:45;9.20;99.90
15217;DHT22;7711;46.634;14.318;2023-04-01T18:31:20;9.20;99.90
15217;DHT22;7711;46.634;14.318;2023-04-01T18:33:54;9.00;99.90
15217;DHT22;7711;46.634;14.318;2023-04-01T18:36:37;8.90;99.90
15217;DHT22;7711;46.634;14.318;2023-04-01T18:39:12;8.90;99.90
15217;DHT22;7711;46.634;14.318;2023-04-01T18:41:51;9.00;99.90
15217;DHT22;7711;46.634;14.318;2023-04-01T18:44:28;9.00;99.90
15217;DHT22;7711;46.634;14.318;2023-04-01T18:47:07;9.00;99.90
15217;DHT22;7711;46.634;14.318;2023-04-01T18:49:43;9.00;99.90